Latest Weather Observations for Gannett Cay

IDQ60801

Issued at 10:05 am EST Monday 24 November 2014 (issued every 30 minutes, with the page automatically refreshed every 10 minutes)

About weather observations | Map of weather stations | Latest weather observations for QLD | Other Formats
Station Details ID: 200831 Name: GANNET CAY Lat: -21.98 Lon: 152.47 Height: 2.3 m
Data from the previous 72 hours. | See also: Recent months for locations in Queensland
Date/Time
EST
Temp
°C
App
Temp
°C
Dew
Point
Rel
Hum
%
Delta-T
°C
Wind Press
QNH
hPa
Press
MSL
hPa
Rain
since 9 am
mm
Dir
 
Spd
km/h
Gust
km/h
Spd
kts
Gust
kts
24/10:00am 25.8 - - - - E 20 26 11 14 1016.1 - -
24/09:30am 25.5 - - - - E 24 28 13 15 1016.2 - -
24/09:29am 25.5 - - - - E 24 - 13 - - 1016.2 -
24/09:00am 25.4 - - - - E 30 35 16 19 1016.1 - -
24/08:30am 25.4 - - - - E 26 30 14 16 1016.3 - -
24/08:29am 25.5 - - - - E 28 - 15 - - 1016.4 -
24/08:00am 25.1 - - - - E 32 37 17 20 1016.2 - -
24/07:30am 25.7 - - - - E 26 30 14 16 1015.9 - -
24/07:29am 25.7 - - - - E 26 - 14 - - 1016.0 -
24/07:00am 25.4 - - - - ENE 26 32 14 17 1015.8 - -
24/06:30am 25.3 - - - - E 30 33 16 18 1015.7 - -
24/06:29am 25.2 - - - - E 30 - 16 - - 1015.7 -
24/06:00am 25.4 - - - - E 28 33 15 18 1015.3 - -
24/05:30am 25.1 - - - - E 28 33 15 18 1015.0 - -
24/05:29am 25.1 - - - - E 30 - 16 - - 1015.1 -
24/05:00am 25.1 - - - - E 28 32 15 17 1014.8 - -
24/04:30am 25.1 - - - - E 30 33 16 18 1014.6 - -
24/04:29am 25.2 - - - - E 30 - 16 - - 1014.7 -
24/04:00am 25.1 - - - - ENE 30 33 16 18 1014.5 - -
24/03:30am 25.1 - - - - ENE 30 33 16 18 1014.4 - -
24/03:29am 25.1 - - - - ENE 30 - 16 - - 1014.5 -
24/03:00am 25.2 - - - - ENE 30 33 16 18 1014.5 - -
24/02:30am 25.3 - - - - ENE 30 32 16 17 1014.5 - -
24/02:29am 25.3 - - - - ENE 30 - 16 - - 1014.6 -
24/02:00am 25.3 - - - - ENE 28 33 15 18 1014.7 - -
24/01:30am 25.3 - - - - ENE 30 33 16 18 1014.8 - -
24/01:29am 25.3 - - - - ENE 30 - 16 - - 1014.9 -
24/01:00am 25.4 - - - - ENE 32 35 17 19 1015.1 - -
24/12:30am 25.4 - - - - NE 30 32 16 17 1015.5 - -
24/12:29am 25.5 - - - - NE 28 - 15 - - 1015.6 -
24/12:00am 25.5 - - - - ENE 28 32 15 17 1015.7 - -
 
Date/Time
EST
Temp
°C
App
Temp
°C
Dew
Point
Rel
Hum
%
Delta-T
°C
Wind Press
QNH
hPa
Press
MSL
hPa
Rain
since 9 am
mm
Dir
 
Spd
km/h
Gust
km/h
Spd
kts
Gust
kts
23/11:30pm 25.6 - - - - ENE 30 33 16 18 1015.8 - -
23/11:29pm 25.6 - - - - ENE 28 - 15 - - 1015.9 -
23/11:00pm 25.5 - - - - ENE 28 33 15 18 1015.8 - -
23/10:30pm 25.7 - - - - ENE 30 33 16 18 1015.9 - -
23/10:29pm 25.7 - - - - ENE 30 - 16 - - 1016.0 -
23/10:00pm 25.6 - - - - ENE 28 30 15 16 1015.8 - -
23/09:30pm 25.6 - - - - ENE 26 30 14 16 1015.7 - -
23/09:29pm 25.6 - - - - ENE 26 - 14 - - 1015.8 -
23/09:00pm 25.6 - - - - ENE 26 28 14 15 1015.6 - -
23/08:30pm 25.7 - - - - ENE 26 30 14 16 1015.3 - -
23/08:29pm 25.6 - - - - ENE 26 - 14 - - 1015.4 -
23/08:00pm 25.6 - - - - ENE 26 28 14 15 1015.1 - -
23/07:30pm 25.7 - - - - E 26 30 14 16 1014.9 - -
23/07:29pm 25.7 - - - - E 26 - 14 - - 1015.0 -
23/07:00pm 25.7 - - - - E 24 28 13 15 1014.8 - -
23/06:30pm 25.6 - - - - E 24 28 13 15 1014.6 - -
23/06:29pm 25.7 - - - - E 24 - 13 - - 1014.7 -
23/06:00pm 25.8 - - - - E 26 30 14 16 1014.4 - -
23/05:30pm 26.1 - - - - E 26 30 14 16 1014.3 - -
23/05:29pm 26.0 - - - - E 26 - 14 - - 1014.3 -
23/05:00pm 26.0 - - - - E 26 30 14 16 1014.1 - -
23/04:30pm 26.1 - - - - ESE 26 28 14 15 1014.1 - -
23/04:29pm 26.3 - - - - ESE 24 - 13 - - 1014.2 -
23/04:00pm 26.5 - - - - ESE 24 28 13 15 1014.1 - -
23/03:30pm 26.5 - - - - ESE 22 26 12 14 1014.3 - -
23/03:29pm 26.4 - - - - ESE 24 - 13 - - 1014.4 -
23/03:00pm 26.4 - - - - SE 24 26 13 14 1014.4 - -
23/02:30pm 26.4 - - - - SE 22 26 12 14 1014.7 - -
23/02:29pm 26.4 - - - - SE 22 - 12 - - 1014.8 -
23/02:00pm 26.3 - - - - SE 22 24 12 13 1014.9 - -
23/01:30pm 26.4 - - - - SE 20 24 11 13 1015.3 - -
23/01:29pm 26.5 - - - - SE 20 - 11 - - 1015.4 -
23/01:00pm 26.3 - - - - ESE 20 24 11 13 1015.6 - -
23/12:30pm 26.2 - - - - ESE 20 24 11 13 1015.8 - -
23/12:29pm 26.2 - - - - ESE 22 - 12 - - 1015.9 -
23/12:00pm 26.1 - - - - ESE 20 24 11 13 1016.0 - -
23/11:30am 25.9 - - - - ESE 22 24 12 13 1016.3 - -
23/11:29am 26.0 - - - - ESE 22 - 12 - - 1016.5 -
23/11:00am 26.1 - - - - ESE 20 24 11 13 1016.6 - -
23/10:30am 26.0 - - - - ESE 20 22 11 12 1016.7 - -
23/10:29am 26.0 - - - - ESE 20 - 11 - - 1016.8 -
23/10:00am 25.9 - - - - ESE 20 24 11 13 1016.6 - -
23/09:30am 26.0 - - - - ESE 19 20 10 11 1016.7 - -
23/09:29am 25.9 - - - - ESE 20 - 11 - - 1016.8 -
23/09:00am 25.9 - - - - E 20 24 11 13 1016.6 - -
23/08:30am 26.0 - - - - ESE 17 19 9 10 1016.6 - -
23/08:29am 26.0 - - - - ESE 17 - 9 - - 1016.7 -
23/08:00am 25.9 - - - - E 17 20 9 11 1016.5 - -
23/07:30am 25.7 - - - - E 19 20 10 11 1016.2 - -
23/07:29am 25.7 - - - - E 19 - 10 - - 1016.3 -
23/07:00am 25.6 - - - - E 19 20 10 11 1015.9 - -
23/06:30am 25.4 - - - - E 19 20 10 11 1015.6 - -
23/06:29am 25.4 - - - - E 19 - 10 - - 1015.7 -
23/06:00am 25.2 - - - - E 19 20 10 11 1015.4 - -
23/05:30am 25.1 - - - - E 19 22 10 12 1015.1 - -
23/05:29am 25.1 - - - - E 19 - 10 - - 1015.2 -
23/05:00am 25.0 - - - - E 19 20 10 11 1014.7 - -
23/04:30am 25.0 - - - - E 19 20 10 11 1014.5 - -
23/04:29am 25.0 - - - - E 19 - 10 - - 1014.6 -
23/04:00am 25.0 - - - - E 19 20 10 11 1014.3 - -
23/03:30am 25.0 - - - - E 20 24 11 13 1014.2 - -
23/03:29am 25.0 - - - - E 19 - 10 - - 1014.3 -
23/03:00am 25.0 - - - - E 19 20 10 11 1014.2 - -
23/02:30am 25.3 - - - - ENE 20 24 11 13 1014.1 - -
23/02:29am 25.2 - - - - ENE 20 - 11 - - 1014.2 -
23/02:00am 25.2 - - - - E 22 26 12 14 1014.1 - -
23/01:30am 25.2 - - - - E 20 24 11 13 1014.3 - -
23/01:29am 25.2 - - - - ENE 20 - 11 - - 1014.4 -
23/01:00am 25.2 - - - - ENE 24 28 13 15 1014.3 - -
23/12:30am 25.3 - - - - ENE 24 28 13 15 1014.6 - -
23/12:29am 25.3 - - - - ENE 24 - 13 - - 1014.7 -
23/12:00am 25.5 - - - - ENE 22 26 12 14 1014.9 - -
 
Date/Time
EST
Temp
°C
App
Temp
°C
Dew
Point
Rel
Hum
%
Delta-T
°C
Wind Press
QNH
hPa
Press
MSL
hPa
Rain
since 9 am
mm
Dir
 
Spd
km/h
Gust
km/h
Spd
kts
Gust
kts
22/11:30pm 25.5 - - - - ENE 22 26 12 14 1015.2 - -
22/11:29pm 25.4 - - - - ENE 22 - 12 - - 1015.3 -
22/11:00pm 25.5 - - - - ENE 24 26 13 14 1015.5 - -
22/10:30pm 25.5 - - - - ENE 24 26 13 14 1015.6 - -
22/10:29pm 25.5 - - - - ENE 24 - 13 - - 1015.7 -
22/10:00pm 25.5 - - - - ENE 24 28 13 15 1015.6 - -
22/09:30pm 25.6 - - - - ENE 24 28 13 15 1015.6 - -
22/09:29pm 25.6 - - - - ENE 24 - 13 - - 1015.7 -
22/09:00pm 25.6 - - - - ENE 26 30 14 16 1015.3 - -
22/08:30pm 25.6 - - - - E 24 28 13 15 1015.0 - -
22/08:29pm 25.6 - - - - E 24 - 13 - - 1015.1 -
22/08:00pm 25.6 - - - - E 22 26 12 14 1014.9 - -
22/07:30pm 25.8 - - - - E 20 22 11 12 1014.6 - -
22/07:29pm 25.7 - - - - E 20 - 11 - - 1014.7 -
22/07:00pm 25.7 - - - - E 20 22 11 12 1014.3 - -
22/06:30pm 25.7 - - - - E 19 20 10 11 1014.0 - -
22/06:29pm 25.7 - - - - E 19 - 10 - - 1014.1 -
22/06:00pm 25.7 - - - - ENE 19 20 10 11 1013.8 - -
22/05:30pm 25.9 - - - - E 19 20 10 11 1013.5 - -
22/05:29pm 25.8 - - - - E 19 - 10 - - 1013.6 -
22/05:00pm 26.1 - - - - E 15 19 8 10 1013.3 - -
22/04:30pm 26.0 - - - - E 17 17 9 9 1013.1 - -
22/04:29pm 25.9 - - - - E 17 - 9 - - 1013.2 -
22/04:00pm 26.2 - - - - E 15 17 8 9 1013.0 - -
22/03:30pm 26.4 - - - - E 17 19 9 10 1013.1 - -
22/03:29pm 26.3 - - - - E 17 - 9 - - 1013.2 -
22/03:00pm 26.2 - - - - E 13 15 7 8 1013.2 - -
22/02:30pm 26.1 - - - - E 13 15 7 8 1013.5 - -
22/02:29pm 26.0 - - - - E 13 - 7 - - 1013.6 -
22/02:00pm 26.0 - - - - ENE 15 15 8 8 1013.9 - -
22/01:30pm 25.9 - - - - ENE 15 17 8 9 1014.1 - -
22/01:29pm 25.9 - - - - ENE 15 - 8 - - 1014.2 -
22/01:00pm 25.8 - - - - ENE 15 17 8 9 1014.4 - -
22/12:30pm 25.8 - - - - ENE 13 15 7 8 1014.9 - -
22/12:29pm 25.8 - - - - ENE 13 - 7 - - 1015.0 -
22/12:00pm 25.7 - - - - ENE 13 15 7 8 1015.2 - -
22/11:30am 25.7 - - - - ENE 13 15 7 8 1015.4 - -
22/11:29am 25.7 - - - - ENE 13 - 7 - - 1015.5 -
22/11:00am 25.7 - - - - E 13 13 7 7 1015.8 - -
22/10:30am 25.9 - - - - E 11 13 6 7 1016.0 - -
22/10:29am 25.9 - - - - E 11 - 6 - - 1016.1 -
22/10:00am 25.9 - - - - E 13 15 7 8 1016.1 - -
22/09:30am 25.8 - - - - ENE 11 13 6 7 1016.3 - -
22/09:29am 25.8 - - - - ENE 11 - 6 - - 1016.4 -
22/09:00am 25.8 - - - - ENE 11 11 6 6 1016.4 - -
22/08:30am 25.8 - - - - ENE 11 13 6 7 1016.3 - -
22/08:29am 25.8 - - - - ENE 11 - 6 - - 1016.4 -
22/08:00am 26.0 - - - - NE 13 15 7 8 1016.0 - -
22/07:30am 25.9 - - - - NE 13 15 7 8 1015.8 - -
22/07:29am 25.8 - - - - NE 13 - 7 - - 1015.9 -
22/07:00am 25.8 - - - - NE 15 17 8 9 1015.4 - -
22/06:30am 25.8 - - - - NE 19 20 10 11 1015.0 - -
22/06:29am 25.7 - - - - NE 19 - 10 - - 1015.1 -
22/06:00am 25.5 - - - - NNE 19 20 10 11 1014.5 - -
22/05:30am 25.3 - - - - NE 20 20 11 11 1014.1 - -
22/05:29am 25.3 - - - - NE 20 - 11 - - 1014.1 -
22/05:00am 25.3 - - - - NE 22 26 12 14 1013.6 - -
22/04:30am 25.2 - - - - NNE 24 26 13 14 1013.3 - -
22/04:29am 25.2 - - - - NNE 24 - 13 - - 1013.4 -
22/04:00am 25.2 - - - - NE 22 26 12 14 1013.1 - -
22/03:30am 25.3 - - - - NE 28 30 15 16 1012.8 - -
22/03:29am 25.3 - - - - NE 28 - 15 - - 1012.9 -
22/03:00am 25.3 - - - - NE 28 32 15 17 1012.8 - -
22/02:30am 25.3 - - - - NNE 32 33 17 18 1012.7 - -
22/02:29am 25.3 - - - - NNE 32 - 17 - - 1012.8 -
22/02:00am 25.3 - - - - NNE 28 32 15 17 1012.9 - -
22/01:30am 25.3 - - - - NNE 28 32 15 17 1013.3 - -
22/01:29am 25.3 - - - - NNE 28 - 15 - - 1013.4 -
22/01:00am 25.4 - - - - NNE 28 32 15 17 1013.6 - -
22/12:30am 25.5 - - - - NE 28 32 15 17 1013.9 - -
22/12:29am 25.4 - - - - NE 28 - 15 - - 1014.0 -
22/12:00am 25.5 - - - - NE 28 33 15 18 1014.1 - -
 
Date/Time
EST
Temp
°C
App
Temp
°C
Dew
Point
Rel
Hum
%
Delta-T
°C
Wind Press
QNH
hPa
Press
MSL
hPa
Rain
since 9 am
mm
Dir
 
Spd
km/h
Gust
km/h
Spd
kts
Gust
kts
21/11:30pm 25.6 - - - - NE 28 32 15 17 1014.3 - -
21/11:29pm 25.6 - - - - NE 28 - 15 - - 1014.4 -
21/11:00pm 25.6 - - - - NE 19 24 10 13 1014.6 - -
21/10:30pm 25.6 - - - - NE 15 17 8 9 1014.7 - -
21/10:29pm 25.6 - - - - NE 15 - 8 - - 1014.9 -
21/10:00pm 25.6 - - - - NE 13 15 7 8 1014.8 - -
21/09:30pm 25.6 - - - - NE 13 15 7 8 1014.8 - -
21/09:29pm 25.6 - - - - NE 13 - 7 - - 1014.9 -
21/09:00pm 25.6 - - - - NE 13 15 7 8 1014.7 - -
21/08:30pm 25.5 - - - - ENE 13 13 7 7 1014.6 - -
21/08:29pm 25.5 - - - - ENE 13 - 7 - - 1014.7 -
21/08:00pm 25.5 - - - - ENE 11 13 6 7 1014.4 - -
21/07:30pm 25.5 - - - - ENE 11 11 6 6 1014.2 - -
21/07:29pm 25.6 - - - - ENE 11 - 6 - - 1014.3 -
21/07:00pm 25.5 - - - - ENE 7 9 4 5 1014.0 - -
21/06:30pm 25.6 - - - - ENE 9 11 5 6 1013.7 - -
21/06:29pm 25.6 - - - - ENE 9 - 5 - - 1013.8 -
21/06:00pm 25.6 - - - - ENE 11 13 6 7 1013.4 - -
21/05:30pm 26.0 - - - - E 9 11 5 6 1013.2 - -
21/05:29pm 26.0 - - - - E 9 - 5 - - 1013.3 -
21/05:00pm 25.8 - - - - ENE 9 11 5 6 1013.1 - -
21/04:30pm 25.9 - - - - ENE 9 11 5 6 1013.0 - -
21/04:29pm 25.9 - - - - ENE 9 - 5 - - 1013.1 -
21/04:00pm 26.0 - - - - NE 11 11 6 6 1013.0 - -
21/03:30pm 26.1 - - - - NE 9 11 5 6 1013.1 - -
21/03:29pm 26.2 - - - - NE 9 - 5 - - 1013.2 -
21/03:00pm 26.1 - - - - ENE 9 11 5 6 1013.3 - -
21/02:30pm 25.9 - - - - E 9 11 5 6 1013.5 - -
21/02:29pm 26.0 - - - - E 9 - 5 - - 1013.6 -
21/02:00pm 26.2 - - - - E 9 11 5 6 1013.7 - -
21/01:30pm 26.1 - - - - E 7 9 4 5 1013.9 - -
21/01:29pm 26.2 - - - - E 7 - 4 - - 1014.0 -
21/01:00pm 27.8 - - - - E 6 7 3 4 1014.4 - -
21/12:30pm 28.0 - - - - CALM 0 0 0 0 1014.9 - -
21/12:29pm 27.9 - - - - CALM 0 - 0 - - 1015.0 -
21/12:00pm 26.2 - - - - CALM 0 0 0 0 1015.3 - -
21/11:30am 25.9 - - - - NE 4 6 2 3 1015.7 - -
21/11:29am 26.0 - - - - NE 4 - 2 - - 1015.8 -
21/11:00am 26.0 - - - - NE 4 7 2 4 1015.8 - -
21/10:30am 26.0 - - - - NE 6 7 3 4 1015.9 - -
21/10:29am 26.0 - - - - NE 6 - 3 - - 1016.0 -

Other Formats:

Comma delimited format used in spreadsheet applications
http://www.bom.gov.au/fwo/IDQ60801/IDQ60801.94379.axf

JavaScript Object Notation format (JSON) in row-major order
http://www.bom.gov.au/fwo/IDQ60801/IDQ60801.94379.json